createdAt,value
2023-01-17T00:00:49.430Z,-0.16
2023-01-17T00:10:58.956Z,-0.08
2023-01-17T00:21:19.758Z,0.02
2023-01-17T00:31:22.138Z,0.09
2023-01-17T00:41:24.458Z,0.86
2023-01-17T00:51:47.145Z,0.93
2023-01-17T01:02:08.007Z,1.12
2023-01-17T01:12:28.966Z,1.02
2023-01-17T01:22:49.589Z,1.07
2023-01-17T01:33:10.739Z,1.19
2023-01-17T01:43:14.993Z,1.14
2023-01-17T01:53:20.423Z,1.51
2023-01-17T02:03:29.594Z,1.59
2023-01-17T02:13:31.997Z,1.46
2023-01-17T02:23:53.209Z,1.43
2023-01-17T02:34:20.724Z,1.38
2023-01-17T02:44:24.197Z,1.41
2023-01-17T02:54:56.032Z,1.23
2023-01-17T03:05:09.216Z,1.01
2023-01-17T03:15:13.118Z,1.02
2023-01-17T03:25:16.851Z,1.11
2023-01-17T03:35:19.289Z,1.23
2023-01-17T03:45:21.679Z,1.53
2023-01-17T03:55:24.036Z,1.25
2023-01-17T04:05:26.423Z,1.09
2023-01-17T04:15:28.880Z,1.04
2023-01-17T04:25:31.457Z,1.05
2023-01-17T04:35:33.837Z,0.84
2023-01-17T06:05:11.467Z,-0.39
2023-01-17T06:15:15.393Z,0.32
2023-01-17T06:25:17.762Z,0.70
2023-01-17T06:35:20.113Z,0.96
2023-01-17T06:45:22.592Z,1.08
2023-01-17T06:55:25.152Z,0.96
2023-01-17T07:05:28.707Z,0.98
2023-01-17T07:15:31.138Z,1.10
2023-01-17T07:25:33.684Z,0.98
2023-01-17T07:35:37.429Z,1.07
2023-01-17T07:45:49.730Z,1.47
2023-01-17T07:55:52.455Z,1.76
2023-01-17T08:05:57.745Z,1.69
2023-01-17T08:16:02.603Z,2.25
2023-01-17T08:26:05.197Z,2.33
2023-01-17T08:36:07.620Z,2.28
2023-01-17T08:46:10.128Z,2.06
2023-01-17T08:56:12.555Z,2.44
2023-01-17T09:06:16.300Z,2.42
2023-01-17T09:16:18.826Z,3.00
2023-01-17T09:26:22.476Z,3.66
2023-01-17T09:36:34.036Z,3.69
2023-01-17T09:46:46.053Z,3.97
2023-01-17T09:56:58.688Z,4.37
2023-01-17T10:07:40.904Z,4.61
2023-01-17T10:18:29.856Z,4.67
2023-01-17T10:28:40.788Z,4.51
2023-01-17T10:38:48.279Z,4.59
2023-01-17T10:48:52.982Z,4.42
2023-01-17T10:59:31.364Z,4.32
2023-01-17T11:09:42.958Z,3.81
2023-01-17T11:19:49.173Z,3.80
2023-01-17T11:30:03.060Z,3.84
2023-01-17T11:40:18.452Z,2.99
2023-01-17T11:50:25.249Z,2.30
2023-01-17T12:00:47.374Z,2.25
2023-01-17T12:11:17.290Z,3.12
2023-01-17T12:21:36.087Z,3.31
2023-01-17T12:31:59.729Z,3.86
2023-01-17T12:42:24.368Z,3.73
2023-01-17T12:52:38.815Z,3.55
2023-01-17T13:02:54.292Z,3.28
2023-01-17T13:13:00.046Z,3.43
2023-01-17T13:23:16.971Z,3.55
2023-01-17T13:33:36.479Z,3.60
2023-01-17T13:43:42.466Z,3.71
2023-01-17T13:53:44.785Z,3.47
2023-01-17T14:03:50.215Z,3.37
2023-01-17T14:13:52.854Z,3.14
2023-01-17T14:24:15.438Z,2.98
2023-01-17T14:34:22.515Z,2.55
2023-01-17T14:44:25.007Z,2.15
2023-01-17T14:54:27.547Z,2.24
2023-01-17T15:04:32.132Z,1.91
2023-01-17T15:14:39.310Z,1.73
2023-01-17T15:24:44.869Z,1.65
2023-01-17T15:34:50.213Z,1.13
2023-01-17T15:44:56.766Z,0.45
2023-01-17T15:55:12.581Z,0.10
2023-01-17T16:05:31.237Z,-0.33
2023-01-17T16:15:35.437Z,-0.82
2023-01-17T16:25:38.552Z,-1.27
2023-01-17T16:35:43.185Z,-1.74
2023-01-17T16:45:47.814Z,-2.31
2023-01-17T16:55:52.837Z,-2.77
2023-01-17T17:06:00.470Z,-3.09
2023-01-17T17:16:03.414Z,-3.24
2023-01-17T17:26:06.211Z,-3.42
2023-01-17T17:36:10.423Z,-3.69
2023-01-17T17:46:13.305Z,-3.78
2023-01-17T17:56:15.744Z,-4.11
2023-01-17T18:06:18.895Z,-4.34
2023-01-17T18:16:42.818Z,-4.42
2023-01-17T18:26:48.177Z,-4.59
2023-01-17T18:36:51.869Z,-4.72
2023-01-17T18:46:55.064Z,-4.74
2023-01-17T18:56:57.586Z,-4.83
2023-01-17T19:06:59.977Z,-4.88
2023-01-17T19:17:02.431Z,-4.89
2023-01-17T19:27:07.339Z,-4.83
2023-01-17T19:37:09.704Z,-4.94
2023-01-17T19:47:12.341Z,-5.04
2023-01-17T19:57:15.086Z,-5.28
2023-01-17T20:07:17.551Z,-5.45
2023-01-17T20:17:20.432Z,-5.64
2023-01-17T20:27:26.709Z,-5.58
2023-01-17T20:37:29.207Z,-5.41
2023-01-17T20:47:31.605Z,-5.42
2023-01-17T20:57:34.584Z,-4.95
2023-01-17T21:07:37.598Z,-4.90
2023-01-17T21:17:43.180Z,-4.83
2023-01-17T21:27:45.859Z,-4.97
2023-01-17T21:40:11.214Z,-5.08
2023-01-17T21:50:25.009Z,-4.99
2023-01-17T22:00:34.737Z,-4.86
2023-01-17T22:10:44.766Z,-4.73
2023-01-17T22:20:47.301Z,-4.70
2023-01-17T22:30:49.756Z,-4.53
2023-01-17T22:40:52.291Z,-4.35
2023-01-17T22:50:59.955Z,-3.98
2023-01-17T23:01:05.796Z,-3.65
2023-01-17T23:11:41.107Z,-3.18
2023-01-17T23:22:01.976Z,-3.14
2023-01-17T23:32:04.672Z,-3.22
2023-01-17T23:42:25.874Z,-3.21
2023-01-17T23:52:28.235Z,-3.09
